Time;durP1;ratioP1;P1;durP2;ratioP2;P2;SDS_P1;SDS_P2;PMS_P1;PMS_P2;Temp;Humidity;BMP_temperature;BMP_pressure;BME280_temperature;BME280_humidity;BME280_pressure;Samples;Min_cycle;Max_cycle;Signal;HPM_P1;HPM_P2
2023/07/19 00:01:11;;;;;;;1.83;0.50;;;20.00;42.50;;;;;;4946746;28;20493;-70
2023/07/19 00:03:38;;;;;;;3.60;0.60;;;20.20;40.50;;;;;;4949281;28;20102;-71
2023/07/19 00:06:06;;;;;;;3.50;0.38;;;19.90;40.80;;;;;;4948296;28;20455;-70
2023/07/19 00:08:33;;;;;;;1.48;0.60;;;20.30;38.90;;;;;;4946513;28;20038;-70
2023/07/19 00:11:01;;;;;;;1.77;0.40;;;20.00;40.80;;;;;;4951792;28;20507;-71
2023/07/19 00:13:28;;;;;;;2.03;0.50;;;20.40;40.10;;;;;;4950483;28;20026;-69
2023/07/19 00:15:56;;;;;;;4.88;1.08;;;20.30;39.00;;;;;;4946134;28;21072;-69
2023/07/19 00:18:23;;;;;;;3.33;0.40;;;21.00;37.90;;;;;;4943282;28;20161;-69
2023/07/19 00:20:51;;;;;;;1.40;0.22;;;20.90;37.50;;;;;;4944791;28;20094;-70
2023/07/19 00:23:18;;;;;;;1.42;0.30;;;21.10;38.60;;;;;;4942432;28;20039;-69
2023/07/19 00:25:45;;;;;;;2.15;0.65;;;21.20;37.60;;;;;;4948861;28;20031;-68
2023/07/19 00:28:13;;;;;;;1.42;0.55;;;21.00;37.40;;;;;;4947371;28;20376;-69
2023/07/19 00:30:41;;;;;;;3.67;0.60;;;21.30;37.50;;;;;;4945900;28;20440;-70
2023/07/19 00:33:09;;;;;;;4.35;0.50;;;21.90;36.10;;;;;;4940513;28;20133;-70
2023/07/19 00:35:43;;;;;;;3.95;0.40;;;21.90;36.30;;;;;;4945308;28;20032;-69
2023/07/19 00:38:10;;;;;;;3.47;0.70;;;21.80;35.80;;;;;;4944706;28;20027;-69
2023/07/19 00:40:37;;;;;;;7.68;0.57;;;22.30;35.90;;;;;;4946339;28;20035;-68
2023/07/19 00:43:11;;;;;;;6.18;0.82;;;22.60;36.70;;;;;;4944509;28;20028;-69
2023/07/19 00:45:51;;;;;;;3.85;0.82;;;23.00;35.20;;;;;;4947653;28;20500;-68
2023/07/19 00:48:19;;;;;;;2.58;0.25;;;22.70;35.00;;;;;;4941481;28;20106;-68
2023/07/19 00:50:49;;;;;;;7.30;1.02;;;22.40;34.50;;;;;;4933334;28;20499;-69
2023/07/19 00:53:19;;;;;;;3.70;0.52;;;23.00;32.80;;;;;;4932494;28;20468;-69
2023/07/19 00:55:50;;;;;;;2.40;0.40;;;23.20;33.60;;;;;;4946323;28;20138;-68
2023/07/19 00:58:21;;;;;;;1.90;0.60;;;23.20;32.80;;;;;;4945121;28;20056;-69
2023/07/19 01:00:48;;;;;;;2.47;0.65;;;23.50;33.80;;;;;;4954879;28;20469;-69
2023/07/19 01:03:16;;;;;;;6.00;0.68;;;23.70;31.10;;;;;;4950790;28;20496;-69
2023/07/19 01:05:44;;;;;;;1.58;0.35;;;23.60;32.60;;;;;;4947251;28;20553;-70
2023/07/19 01:08:11;;;;;;;3.47;0.93;;;23.50;32.10;;;;;;4949134;28;20031;-69
2023/07/19 01:10:39;;;;;;;5.28;0.80;;;24.30;31.20;;;;;;4951197;28;20039;-69
2023/07/19 01:13:08;;;;;;;1.83;0.50;;;24.00;30.70;;;;;;4944643;28;20027;-71
2023/07/19 01:15:42;;;;;;;2.17;0.52;;;23.90;31.80;;;;;;4944491;28;20031;-70
2023/07/19 01:18:09;;;;;;;3.70;0.77;;;23.70;31.20;;;;;;4943850;28;20104;-70
2023/07/19 01:20:37;;;;;;;2.83;0.50;;;23.70;31.10;;;;;;4949098;28;20484;-70
2023/07/19 01:23:04;;;;;;;2.72;0.50;;;23.80;31.00;;;;;;4952120;28;20095;-69
2023/07/19 01:25:32;;;;;;;4.43;1.00;;;23.80;31.90;;;;;;4949313;28;20117;-71
2023/07/19 01:28:00;;;;;;;1.63;0.40;;;24.10;31.90;;;;;;4950160;28;20050;-70
2023/07/19 01:30:27;;;;;;;2.20;0.40;;;24.50;31.80;;;;;;4956072;28;20051;-70
2023/07/19 01:32:55;;;;;;;3.45;0.55;;;24.60;31.20;;;;;;4949640;28;20063;-70
2023/07/19 01:35:22;;;;;;;3.70;0.65;;;24.30;30.50;;;;;;4951269;28;20712;-69
2023/07/19 01:37:50;;;;;;;3.50;0.63;;;23.90;31.00;;;;;;4955686;28;20105;-71
2023/07/19 01:40:17;;;;;;;3.22;0.57;;;23.70;31.50;;;;;;4953828;28;20035;-68
2023/07/19 01:42:45;;;;;;;2.03;0.50;;;23.70;30.30;;;;;;4955682;28;20374;-70
2023/07/19 01:45:12;;;;;;;6.43;0.70;;;23.80;30.50;;;;;;4949961;28;20058;-70
2023/07/19 01:47:39;;;;;;;3.70;0.50;;;24.10;31.10;;;;;;4952026;28;20370;-69
2023/07/19 01:50:07;;;;;;;6.72;1.50;;;24.40;29.90;;;;;;4946754;28;20177;-70
2023/07/19 01:52:34;;;;;;;3.65;0.60;;;24.30;29.70;;;;;;4957968;28;20473;-69
2023/07/19 01:55:02;;;;;;;1.45;0.55;;;24.20;30.20;;;;;;4948202;28;20039;-69
2023/07/19 01:57:29;;;;;;;3.13;0.68;;;23.90;30.40;;;;;;4954678;28;20122;-70
2023/07/19 01:59:56;;;;;;;2.72;0.45;;;24.20;31.00;;;;;;4952719;28;20050;-70
2023/07/19 02:02:24;;;;;;;3.33;0.40;;;24.30;29.70;;;;;;4954152;28;20046;-71
2023/07/19 02:04:51;;;;;;;1.98;0.73;;;23.90;30.20;;;;;;4946069;28;20024;-71
2023/07/19 02:07:18;;;;;;;1.63;0.60;;;23.70;29.80;;;;;;4966363;28;20042;-70
2023/07/19 02:09:46;;;;;;;3.65;0.40;;;23.80;30.00;;;;;;4949354;28;20066;-71
2023/07/19 02:12:13;;;;;;;4.05;0.80;;;23.60;30.80;;;;;;4952779;28;20031;-70
2023/07/19 02:14:41;;;;;;;4.47;1.00;;;23.90;30.00;;;;;;4951549;28;20038;-69
2023/07/19 02:17:09;;;;;;;3.63;0.50;;;23.70;31.60;;;;;;4950860;28;20054;-69
2023/07/19 02:19:37;;;;;;;4.47;0.80;;;23.60;29.90;;;;;;4952778;28;20050;-70
2023/07/19 02:22:04;;;;;;;2.85;0.75;;;23.80;30.40;;;;;;4952457;28;20168;-70
2023/07/19 02:24:32;;;;;;;2.03;0.70;;;24.00;29.30;;;;;;4949084;28;20114;-68
2023/07/19 02:26:59;;;;;;;8.43;2.95;;;23.60;31.00;;;;;;4948637;28;20039;-68
2023/07/19 02:29:26;;;;;;;5.45;1.20;;;23.70;30.20;;;;;;4951999;28;20043;-70
2023/07/19 02:31:54;;;;;;;2.97;1.13;;;23.60;30.00;;;;;;4950508;28;20457;-68
2023/07/19 02:34:22;;;;;;;7.47;1.95;;;23.10;29.60;;;;;;4945494;28;20126;-71
2023/07/19 02:36:50;;;;;;;2.63;1.17;;;22.90;30.10;;;;;;4945821;28;20027;-69
2023/07/19 02:39:19;;;;;;;2.70;0.98;;;22.90;30.40;;;;;;4953393;28;20039;-68
2023/07/19 02:41:47;;;;;;;2.28;0.70;;;22.50;31.10;;;;;;4947653;28;20034;-68
2023/07/19 02:44:14;;;;;;;3.15;1.10;;;22.60;31.20;;;;;;4948984;28;20106;-69
2023/07/19 02:46:42;;;;;;;6.28;1.00;;;22.70;31.20;;;;;;4952478;28;20039;-69
2023/07/19 02:49:09;;;;;;;3.70;1.08;;;22.70;31.60;;;;;;4943686;28;20023;-69
2023/07/19 02:51:37;;;;;;;6.93;1.30;;;22.70;31.10;;;;;;4951135;28;20041;-69
2023/07/19 02:54:04;;;;;;;7.30;0.88;;;22.50;32.80;;;;;;4946117;28;20027;-69
2023/07/19 02:56:32;;;;;;;2.17;0.90;;;22.50;31.30;;;;;;4949844;28;20047;-69
2023/07/19 02:58:59;;;;;;;4.57;0.90;;;22.70;31.70;;;;;;4948364;28;20042;-70
2023/07/19 03:01:27;;;;;;;3.28;1.13;;;22.40;31.90;;;;;;4953908;28;20066;-70
2023/07/19 03:03:54;;;;;;;3.63;1.00;;;22.60;30.70;;;;;;4948363;28;20362;-69
2023/07/19 03:06:22;;;;;;;3.25;0.70;;;22.20;31.80;;;;;;4952367;28;20046;-70
2023/07/19 03:08:49;;;;;;;3.28;0.63;;;22.30;31.80;;;;;;4953238;28;20418;-69
2023/07/19 03:11:16;;;;;;;2.72;0.73;;;22.40;31.80;;;;;;4951649;28;20035;-69
2023/07/19 03:13:44;;;;;;;3.03;0.60;;;22.30;31.30;;;;;;4950636;28;20466;-69
2023/07/19 03:16:11;;;;;;;3.47;0.70;;;21.90;32.90;;;;;;4948129;28;20161;-69
2023/07/19 03:18:38;;;;;;;2.17;0.60;;;21.70;32.20;;;;;;4950215;28;20019;-69
2023/07/19 03:21:06;;;;;;;3.88;0.77;;;21.70;31.30;;;;;;4954625;28;20542;-69
2023/07/19 03:23:34;;;;;;;2.42;0.52;;;21.70;31.70;;;;;;4947963;28;20034;-69
2023/07/19 03:26:01;;;;;;;4.25;0.80;;;21.30;30.40;;;;;;4953311;28;20031;-68
2023/07/19 03:28:30;;;;;;;5.53;0.70;;;21.30;32.00;;;;;;4955985;28;20079;-69
2023/07/19 03:30:58;;;;;;;1.75;0.80;;;21.30;32.10;;;;;;4952327;28;20459;-69
2023/07/19 03:33:28;;;;;;;2.55;0.65;;;21.10;32.30;;;;;;4950795;28;20047;-69
2023/07/19 03:35:56;;;;;;;2.40;1.05;;;20.70;33.90;;;;;;4952499;28;20438;-69
2023/07/19 03:38:23;;;;;;;4.15;0.77;;;20.60;33.10;;;;;;4951059;28;20048;-70
2023/07/19 03:40:50;;;;;;;3.40;0.77;;;20.60;32.70;;;;;;4952423;28;20045;-71
2023/07/19 03:43:18;;;;;;;2.75;0.65;;;20.30;32.50;;;;;;4946783;28;20030;-70
2023/07/19 03:45:45;;;;;;;2.55;0.70;;;20.20;33.10;;;;;;4948964;28;20059;-71
2023/07/19 03:48:13;;;;;;;3.55;0.75;;;19.90;34.20;;;;;;4948262;28;20505;-69
2023/07/19 03:50:40;;;;;;;4.25;0.70;;;19.70;33.30;;;;;;4947005;28;20062;-70
2023/07/19 03:53:07;;;;;;;4.30;0.68;;;19.30;33.00;;;;;;4950055;28;22706;-70
2023/07/19 03:55:34;;;;;;;3.17;0.70;;;19.30;33.60;;;;;;4951364;28;20459;-68
2023/07/19 03:58:02;;;;;;;2.97;0.82;;;19.00;34.30;;;;;;4948856;28;20050;-71
2023/07/19 04:00:29;;;;;;;4.72;0.70;;;18.80;34.70;;;;;;4949349;28;20046;-69
2023/07/19 04:02:58;;;;;;;2.78;0.43;;;18.40;35.00;;;;;;4950841;28;20110;-70
2023/07/19 04:05:25;;;;;;;4.60;0.60;;;18.30;35.60;;;;;;4951083;28;20035;-70
2023/07/19 04:07:52;;;;;;;2.97;0.60;;;18.30;35.70;;;;;;4951187;28;20035;-71
2023/07/19 04:10:20;;;;;;;2.83;0.68;;;18.20;35.70;;;;;;4947903;28;20046;-69
2023/07/19 04:12:47;;;;;;;2.80;0.68;;;18.30;36.40;;;;;;4944578;28;20122;-70
2023/07/19 04:15:14;;;;;;;1.95;0.60;;;18.40;35.90;;;;;;4949301;28;20034;-69
2023/07/19 04:17:42;;;;;;;3.70;0.70;;;18.30;35.20;;;;;;4944594;28;20082;-69
2023/07/19 04:20:10;;;;;;;4.55;0.50;;;18.30;35.60;;;;;;4947263;28;20381;-69
2023/07/19 04:22:37;;;;;;;5.53;0.70;;;18.30;36.00;;;;;;4949019;28;20031;-69
2023/07/19 04:25:05;;;;;;;1.55;0.73;;;18.20;36.10;;;;;;4947539;28;20024;-69
2023/07/19 04:27:32;;;;;;;3.25;0.80;;;17.90;36.20;;;;;;4955531;28;20066;-70
2023/07/19 04:29:59;;;;;;;1.85;0.40;;;17.80;36.50;;;;;;4947927;28;20507;-69
2023/07/19 04:32:27;;;;;;;2.30;0.55;;;17.70;36.10;;;;;;4945519;28;20035;-71
2023/07/19 04:34:54;;;;;;;2.45;0.75;;;17.70;35.70;;;;;;4948644;28;20031;-69
2023/07/19 04:37:22;;;;;;;2.58;0.60;;;17.60;36.70;;;;;;4952804;28;20042;-68
2023/07/19 04:39:50;;;;;;;2.55;0.70;;;17.60;36.50;;;;;;4948482;28;20031;-68
2023/07/19 04:42:22;;;;;;;3.03;0.70;;;17.60;35.90;;;;;;4950148;28;20041;-70
2023/07/19 04:44:49;;;;;;;2.78;0.60;;;17.60;36.10;;;;;;4948603;28;20023;-70
2023/07/19 04:47:17;;;;;;;4.80;0.60;;;17.50;36.30;;;;;;4951634;28;20027;-69
2023/07/19 04:49:44;;;;;;;2.90;0.93;;;17.50;36.40;;;;;;4945613;28;20035;-69
2023/07/19 04:52:11;;;;;;;3.08;0.88;;;17.40;36.40;;;;;;4950089;28;20473;-68
2023/07/19 04:54:39;;;;;;;5.40;0.85;;;17.20;36.80;;;;;;4946307;28;20467;-70
2023/07/19 04:57:06;;;;;;;2.70;1.00;;;17.30;37.10;;;;;;4951095;28;20078;-70
2023/07/19 04:59:34;;;;;;;3.63;0.68;;;17.30;37.10;;;;;;4952713;28;20083;-70
2023/07/19 05:02:03;;;;;;;1.45;0.45;;;17.30;36.80;;;;;;4956970;28;20027;-70
2023/07/19 05:04:30;;;;;;;2.72;0.43;;;17.30;37.30;;;;;;4949139;28;20083;-71
2023/07/19 05:06:57;;;;;;;2.25;0.68;;;17.30;36.90;;;;;;4950786;28;20082;-68
2023/07/19 05:09:25;;;;;;;1.17;0.47;;;17.30;36.10;;;;;;4953082;28;20461;-68
2023/07/19 05:11:52;;;;;;;2.80;0.50;;;17.20;36.90;;;;;;4947994;28;20027;-69
2023/07/19 05:14:20;;;;;;;4.15;0.60;;;17.20;36.80;;;;;;4951080;28;20489;-69
2023/07/19 05:16:47;;;;;;;2.92;0.80;;;17.10;36.90;;;;;;4955182;28;20469;-68
2023/07/19 05:19:14;;;;;;;1.55;0.40;;;17.10;37.60;;;;;;4955882;28;20034;-69
2023/07/19 05:21:42;;;;;;;5.32;0.50;;;17.10;37.80;;;;;;4952817;28;20035;-69
2023/07/19 05:24:09;;;;;;;2.22;0.55;;;17.00;38.20;;;;;;4951925;28;20133;-69
2023/07/19 05:26:37;;;;;;;5.28;0.40;;;17.10;37.70;;;;;;4958968;28;20077;-70
2023/07/19 05:29:05;;;;;;;3.03;0.75;;;17.20;38.30;;;;;;4951615;28;20514;-69
2023/07/19 05:31:35;;;;;;;1.55;0.57;;;17.00;38.10;;;;;;4954728;28;20042;-69
2023/07/19 05:34:03;;;;;;;3.53;0.73;;;17.10;37.90;;;;;;4950977;28;20035;-69
2023/07/19 05:36:30;;;;;;;4.13;0.80;;;17.10;36.70;;;;;;4954042;28;20027;-69
2023/07/19 05:38:58;;;;;;;2.90;0.68;;;17.00;38.80;;;;;;4954213;28;20034;-69
2023/07/19 05:41:25;;;;;;;2.75;0.57;;;17.00;38.10;;;;;;4953919;28;20039;-68
2023/07/19 05:43:53;;;;;;;4.38;1.20;;;16.90;37.10;;;;;;4949841;28;20421;-70
2023/07/19 05:46:20;;;;;;;4.13;1.10;;;17.10;37.70;;;;;;4948558;28;20024;-69
2023/07/19 05:48:48;;;;;;;2.47;0.60;;;17.20;37.60;;;;;;4943170;28;20054;-70
2023/07/19 05:51:15;;;;;;;2.78;0.70;;;17.20;37.70;;;;;;4947098;28;20047;-70
2023/07/19 05:53:42;;;;;;;1.08;0.40;;;17.10;37.80;;;;;;4952522;28;20380;-69
2023/07/19 05:56:10;;;;;;;1.20;0.55;;;17.20;37.80;;;;;;4948064;28;20073;-69
2023/07/19 05:58:38;;;;;;;5.57;0.70;;;17.30;37.70;;;;;;4952733;28;20062;-69
2023/07/19 06:01:08;;;;;;;2.95;0.70;;;17.20;37.20;;;;;;4951750;28;20019;-70
2023/07/19 06:03:36;;;;;;;5.03;0.82;;;17.20;37.90;;;;;;4953057;28;20094;-68
2023/07/19 06:06:06;;;;;;;5.00;1.45;;;17.30;39.70;;;;;;4933615;28;20449;-70
2023/07/19 06:08:34;;;;;;;6.30;1.45;;;17.10;42.20;;;;;;4947173;28;20139;-69
2023/07/19 06:11:01;;;;;;;12.35;1.25;;;17.00;43.60;;;;;;4971592;28;20046;-70
2023/07/19 06:13:29;;;;;;;7.95;1.13;;;17.00;44.00;;;;;;4952600;28;20037;-69
2023/07/19 06:15:57;;;;;;;6.30;1.40;;;17.00;44.40;;;;;;4946593;28;20027;-68
2023/07/19 06:18:24;;;;;;;6.65;1.35;;;16.90;44.70;;;;;;4939645;28;20602;-69
2023/07/19 06:20:52;;;;;;;7.53;1.92;;;16.80;44.90;;;;;;4952417;28;20109;-71
2023/07/19 06:23:19;;;;;;;7.32;1.10;;;16.70;45.40;;;;;;4949521;28;20027;-69
2023/07/19 06:25:47;;;;;;;7.05;1.23;;;16.70;45.50;;;;;;4964364;28;20035;-70
2023/07/19 06:28:14;;;;;;;4.80;1.65;;;16.80;45.50;;;;;;4949440;28;20054;-70
2023/07/19 06:30:42;;;;;;;9.18;1.63;;;16.90;46.00;;;;;;4957062;28;20065;-69
2023/07/19 06:33:10;;;;;;;6.18;1.13;;;16.70;46.40;;;;;;4950293;28;20425;-68
2023/07/19 06:35:38;;;;;;;10.13;1.48;;;16.60;47.10;;;;;;4951265;28;20027;-67
2023/07/19 06:38:05;;;;;;;6.82;1.25;;;16.60;47.40;;;;;;4951881;28;20504;-69
2023/07/19 06:40:33;;;;;;;4.97;1.15;;;16.50;47.90;;;;;;4948877;28;20027;-68
2023/07/19 06:43:00;;;;;;;6.10;1.70;;;16.30;47.90;;;;;;4946810;28;20027;-69
2023/07/19 06:45:27;;;;;;;7.95;1.23;;;16.10;48.70;;;;;;4945321;28;20031;-69
2023/07/19 06:47:55;;;;;;;8.77;1.27;;;15.80;49.20;;;;;;4943858;28;20034;-69
2023/07/19 06:50:23;;;;;;;8.07;1.55;;;15.80;49.80;;;;;;4939136;28;20585;-70
2023/07/19 06:52:50;;;;;;;6.78;1.77;;;15.70;50.30;;;;;;4945354;28;20030;-71
2023/07/19 06:55:17;;;;;;;6.05;1.35;;;15.50;50.90;;;;;;4942391;28;20031;-68
2023/07/19 06:57:45;;;;;;;7.05;1.17;;;15.30;51.30;;;;;;4930456;28;20458;-70
2023/07/19 07:00:12;;;;;;;8.40;1.40;;;15.20;51.90;;;;;;4947115;28;20082;-69
2023/07/19 07:02:40;;;;;;;9.38;1.52;;;15.00;52.50;;;;;;4953342;28;20028;-69
2023/07/19 07:05:10;;;;;;;9.90;1.75;;;14.90;52.90;;;;;;4946850;28;20401;-70
2023/07/19 07:07:41;;;;;;;7.82;1.60;;;14.80;53.20;;;;;;4948277;28;20495;-69
2023/07/19 07:10:09;;;;;;;11.00;1.73;;;14.70;53.30;;;;;;4938978;28;20066;-69
2023/07/19 07:12:37;;;;;;;9.38;1.45;;;14.70;53.90;;;;;;4944469;28;20112;-68
2023/07/19 07:15:05;;;;;;;12.07;1.60;;;14.50;53.90;;;;;;4948051;28;20019;-69
2023/07/19 07:17:33;;;;;;;8.27;1.48;;;14.40;54.30;;;;;;4940210;28;20106;-70
2023/07/19 07:20:00;;;;;;;12.35;1.77;;;14.40;54.40;;;;;;4936477;28;20050;-70
2023/07/19 07:22:27;;;;;;;12.50;1.88;;;14.40;54.70;;;;;;4937347;28;20392;-70
2023/07/19 07:24:59;;;;;;;15.70;2.03;;;14.40;54.90;;;;;;4941438;28;20465;-70
2023/07/19 07:27:28;;;;;;;7.13;2.00;;;14.40;54.90;;;;;;4931887;28;20038;-70
2023/07/19 07:29:55;;;;;;;6.50;1.80;;;14.30;54.90;;;;;;4947223;28;20035;-70
2023/07/19 07:32:23;;;;;;;9.30;1.90;;;14.10;55.80;;;;;;4946825;28;20477;-69
2023/07/19 07:34:50;;;;;;;9.20;1.85;;;14.00;55.80;;;;;;4945426;28;20023;-69
2023/07/19 07:37:17;;;;;;;12.07;2.30;;;13.80;56.40;;;;;;4949052;28;20039;-68
2023/07/19 07:39:45;;;;;;;12.30;2.38;;;13.60;56.80;;;;;;4948418;28;20102;-70
2023/07/19 07:42:12;;;;;;;11.13;2.20;;;13.70;56.90;;;;;;4945629;28;21368;-69
2023/07/19 07:44:43;;;;;;;10.70;2.30;;;13.70;57.00;;;;;;4943909;28;20027;-68
2023/07/19 07:47:10;;;;;;;6.68;1.65;;;13.60;57.50;;;;;;4930270;28;20389;-69
2023/07/19 07:49:38;;;;;;;14.52;1.90;;;13.50;57.80;;;;;;4949338;28;20043;-69
2023/07/19 07:52:05;;;;;;;8.23;2.20;;;13.40;57.90;;;;;;4951213;28;20461;-69
2023/07/19 07:54:33;;;;;;;9.43;2.17;;;13.40;58.00;;;;;;4945327;28;20105;-67
2023/07/19 07:57:01;;;;;;;7.07;1.88;;;13.40;57.90;;;;;;4923366;28;20051;-68
2023/07/19 07:59:28;;;;;;;11.93;2.20;;;13.30;58.10;;;;;;4948144;28;20125;-70
2023/07/19 08:01:55;;;;;;;9.48;2.17;;;13.30;58.20;;;;;;4936708;28;20037;-69
2023/07/19 08:04:22;;;;;;;;;;;13.20;58.70;;;;;;4940609;28;22446;-70
2023/07/19 08:06:50;;;;;;;8.63;1.42;;;13.00;59.10;;;;;;4948745;28;21328;-68
2023/07/19 08:09:17;;;;;;;10.27;1.70;;;12.80;59.60;;;;;;4936424;28;20242;-69
2023/07/19 08:11:44;;;;;;;;;;;12.60;60.10;;;;;;4943169;28;20024;-69
2023/07/19 08:14:11;;;;;;;14.70;2.53;;;12.50;60.80;;;;;;4942359;28;20276;-69
2023/07/19 08:16:38;;;;;;;12.85;2.08;;;12.50;61.10;;;;;;4941671;28;20042;-69
2023/07/19 08:19:06;;;;;;;10.35;1.73;;;12.40;61.60;;;;;;4945075;28;20039;-69
2023/07/19 08:21:33;;;;;;;14.30;1.45;;;12.40;62.30;;;;;;4944004;28;20445;-68
2023/07/19 08:24:01;;;;;;;11.18;1.95;;;12.40;62.30;;;;;;4954875;28;20030;-69
2023/07/19 08:26:28;;;;;;;18.80;2.08;;;12.20;62.10;;;;;;4952431;28;20473;-69
2023/07/19 08:28:56;;;;;;;14.77;2.60;;;12.10;62.60;;;;;;4929527;28;20031;-70
2023/07/19 08:31:23;;;;;;;14.82;2.15;;;11.90;63.60;;;;;;4945103;28;20052;-69
2023/07/19 08:33:52;;;;;;;11.25;2.45;;;11.80;64.00;;;;;;4953623;28;20019;-69
2023/07/19 08:36:20;;;;;;;12.43;2.03;;;11.70;64.30;;;;;;4955860;28;20552;-69
2023/07/19 08:38:48;;;;;;;20.27;2.40;;;11.60;64.50;;;;;;4953621;28;20083;-69
2023/07/19 08:41:18;;;;;;;23.08;2.83;;;11.50;65.20;;;;;;4952259;28;20143;-69
2023/07/19 08:43:47;;;;;;;20.60;3.30;;;11.50;65.40;;;;;;4951284;28;20031;-69
2023/07/19 08:46:16;;;;;;;31.55;3.83;;;11.30;65.90;;;;;;4954825;28;20385;-69
2023/07/19 08:48:48;;;;;;;16.85;3.15;;;11.30;66.40;;;;;;4957868;28;20023;-69
2023/07/19 08:51:19;;;;;;;19.08;3.20;;;11.40;66.80;;;;;;4952718;28;20057;-69
2023/07/19 08:53:47;;;;;;;12.82;3.30;;;11.30;67.20;;;;;;4953083;28;20039;-68
2023/07/19 08:56:14;;;;;;;14.68;3.25;;;11.30;67.10;;;;;;4953962;28;20460;-69
2023/07/19 08:58:43;;;;;;;23.58;4.03;;;11.20;67.20;;;;;;4955924;28;20035;-69
2023/07/19 09:01:11;;;;;;;18.17;3.30;;;11.20;67.20;;;;;;4967455;28;20035;-68
2023/07/19 09:03:39;;;;;;;15.15;2.95;;;11.20;67.70;;;;;;4953086;28;20469;-69
2023/07/19 09:06:07;;;;;;;18.83;4.28;;;11.30;67.70;;;;;;4956256;28;20473;-68
2023/07/19 09:08:41;;;;;;;12.10;4.00;;;11.40;68.10;;;;;;4955331;28;20027;-68
2023/07/19 09:11:09;;;;;;;15.68;4.38;;;11.50;68.00;;;;;;4954793;28;20039;-69
2023/07/19 09:13:38;;;;;;;21.38;5.10;;;11.50;67.70;;;;;;4948924;28;20150;-69
2023/07/19 09:16:06;;;;;;;17.65;5.65;;;11.30;68.30;;;;;;4956126;28;20023;-69
2023/07/19 09:18:36;;;;;;;14.20;5.18;;;11.00;69.10;;;;;;4953301;28;20115;-71
2023/07/19 09:21:07;;;;;;;18.23;5.53;;;10.90;70.00;;;;;;4955470;28;20117;-69
2023/07/19 09:23:38;;;;;;;17.20;5.18;;;10.80;70.50;;;;;;4940274;28;20027;-69
2023/07/19 09:26:06;;;;;;;13.88;6.15;;;10.70;70.80;;;;;;4957681;28;20532;-70
2023/07/19 09:28:37;;;;;;;23.00;7.75;;;10.70;71.20;;;;;;4954086;28;20144;-69
2023/07/19 09:31:05;;;;;;;21.63;9.93;;;10.70;71.30;;;;;;4957062;28;20035;-68
2023/07/19 09:33:33;;;;;;;23.38;10.20;;;10.70;71.80;;;;;;4955548;28;20042;-67
2023/07/19 09:36:00;;;;;;;22.88;6.72;;;10.60;72.00;;;;;;4953563;28;20090;-68
2023/07/19 09:38:27;;;;;;;;;;;10.60;71.90;;;;;;4950512;28;20026;-70
2023/07/19 09:40:55;;;;;;;14.30;4.65;;;10.50;72.60;;;;;;4954592;28;19914;-69
2023/07/19 09:43:23;;;;;;;11.30;3.90;;;10.50;72.30;;;;;;4953734;28;20508;-69
2023/07/19 09:45:52;;;;;;;18.15;5.32;;;10.50;72.80;;;;;;4950758;28;20028;-71
2023/07/19 09:48:23;;;;;;;17.42;5.78;;;10.50;72.80;;;;;;4937143;28;20397;-68
2023/07/19 09:50:51;;;;;;;17.25;5.60;;;10.40;72.90;;;;;;4952938;28;20054;-70
2023/07/19 09:53:24;;;;;;;20.70;6.55;;;10.40;74.00;;;;;;4949626;28;20054;-67
2023/07/19 09:55:55;;;;;;;20.30;6.03;;;10.30;74.50;;;;;;4949876;28;20031;-68
2023/07/19 09:58:23;;;;;;;18.98;6.28;;;10.20;74.70;;;;;;4946390;28;20492;-68
2023/07/19 10:00:51;;;;;;;17.10;6.72;;;10.10;75.10;;;;;;4949460;28;20031;-70
2023/07/19 10:03:24;;;;;;;24.27;8.55;;;10.00;75.50;;;;;;4952298;28;20027;-69
2023/07/19 10:06:01;;;;;;;17.73;6.85;;;10.00;75.90;;;;;;4946095;28;20031;-69
2023/07/19 10:08:28;;;;;;;21.00;6.40;;;9.90;76.40;;;;;;4948711;28;20077;-69
2023/07/19 10:10:57;;;;;;;;;;;9.70;76.90;;;;;;4939153;28;20134;-69
2023/07/19 10:13:49;;;;;;;20.85;6.78;;;9.70;77.40;;;;;;4948791;28;20001;-69
2023/07/19 10:16:34;;;;;;;16.65;4.82;;;9.50;77.70;;;;;;4949320;28;20102;-69
2023/07/19 10:19:12;;;;;;;20.92;6.28;;;9.40;78.40;;;;;;4948821;28;20148;-69
2023/07/19 10:22:04;;;;;;;24.40;7.43;;;9.30;79.90;;;;;;4951514;28;20517;-69
2023/07/19 10:24:35;;;;;;;15.07;7.75;;;9.20;79.50;;;;;;4944055;28;20062;-68
2023/07/19 10:27:32;;;;;;;18.52;9.50;;;9.10;80.10;;;;;;4947088;28;20076;-68
2023/07/19 10:30:05;;;;;;;15.43;8.43;;;8.90;81.00;;;;;;4947668;28;20110;-68
2023/07/19 10:32:34;;;;;;;17.73;7.88;;;8.90;82.70;;;;;;4950359;28;20031;-68
2023/07/19 10:35:02;;;;;;;16.67;7.63;;;8.90;83.20;;;;;;4947311;28;20031;-68
2023/07/19 10:37:29;;;;;;;17.75;7.15;;;8.90;82.50;;;;;;4951365;28;20031;-69
2023/07/19 10:39:56;;;;;;;;;;;8.80;82.30;;;;;;4949430;28;20047;-69
2023/07/19 10:42:25;;;;;;;17.13;6.72;;;8.80;82.50;;;;;;4951301;28;19949;-69
2023/07/19 10:44:53;;;;;;;16.05;6.45;;;8.70;83.30;;;;;;4950896;28;20030;-69
2023/07/19 10:47:20;;;;;;;17.90;6.80;;;9.00;82.50;;;;;;4932838;28;20039;-67
2023/07/19 10:49:48;;;;;;;14.88;5.43;;;9.00;82.30;;;;;;4947646;28;20093;-67
2023/07/19 10:52:22;;;;;;;15.25;4.70;;;8.90;82.50;;;;;;4945481;28;20031;-69
2023/07/19 10:54:55;;;;;;;18.08;5.03;;;8.70;82.50;;;;;;4949457;28;20030;-68
2023/07/19 10:57:23;;;;;;;14.68;5.65;;;8.60;83.10;;;;;;4949272;28;20055;-68
2023/07/19 10:59:51;;;;;;;14.98;5.85;;;8.50;83.20;;;;;;4945514;28;20433;-69
2023/07/19 11:02:19;;;;;;;12.43;6.13;;;8.40;84.00;;;;;;4949196;28;20031;-68
2023/07/19 11:04:48;;;;;;;14.10;5.65;;;8.40;85.20;;;;;;4952487;28;20075;-72
2023/07/19 11:07:16;;;;;;;19.15;6.10;;;8.40;85.00;;;;;;4951184;28;20062;-69
2023/07/19 11:09:49;;;;;;;14.70;5.47;;;8.30;84.80;;;;;;4947859;28;20043;-67
2023/07/19 11:12:17;;;;;;;14.55;6.10;;;8.20;84.90;;;;;;4949111;28;20492;-67
2023/07/19 11:15:00;;;;;;;18.23;5.32;;;8.10;85.90;;;;;;4946637;28;20507;-67
2023/07/19 11:17:30;;;;;;;12.13;5.20;;;8.00;86.20;;;;;;4945989;28;20381;-67
2023/07/19 11:19:59;;;;;;;16.98;5.47;;;7.90;85.90;;;;;;4949192;28;20030;-68
2023/07/19 11:22:27;;;;;;;17.00;5.57;;;7.90;86.40;;;;;;4950633;28;20409;-68
2023/07/19 11:24:56;;;;;;;11.95;5.20;;;7.90;86.30;;;;;;4952590;28;20042;-69
2023/07/19 11:27:43;;;;;;;12.93;4.70;;;7.80;86.40;;;;;;4934481;28;20494;-68
2023/07/19 11:30:11;;;;;;;14.55;5.13;;;7.60;87.60;;;;;;4949482;28;20051;-67
2023/07/19 11:32:39;;;;;;;16.80;5.20;;;7.70;88.30;;;;;;4949361;28;20071;-68
2023/07/19 11:35:06;;;;;;;;;;;7.80;88.00;;;;;;4946651;28;20030;-68
2023/07/19 11:37:37;;;;;;;9.65;4.43;;;7.80;88.30;;;;;;4948994;28;19918;-69
2023/07/19 11:40:05;;;;;;;16.35;5.55;;;7.70;88.60;;;;;;4948953;28;20035;-67
2023/07/19 11:42:48;;;;;;;14.15;6.88;;;7.80;87.60;;;;;;4947528;28;20027;-69
2023/07/19 11:45:18;;;;;;;13.57;6.32;;;7.80;87.20;;;;;;4950997;28;20046;-67
2023/07/19 11:47:48;;;;;;;17.55;7.00;;;7.60;87.10;;;;;;4948440;28;20050;-68
2023/07/19 11:50:16;;;;;;;17.73;7.97;;;7.60;88.40;;;;;;4944926;28;20055;-70
2023/07/19 11:52:48;;;;;;;16.27;7.53;;;7.40;87.80;;;;;;4945492;28;20428;-68
2023/07/19 11:55:17;;;;;;;17.30;6.65;;;7.40;88.40;;;;;;4948726;28;20510;-70
2023/07/19 11:57:48;;;;;;;12.73;5.55;;;7.20;88.60;;;;;;4934496;28;20055;-68
2023/07/19 12:00:16;;;;;;;11.07;5.28;;;7.10;89.30;;;;;;4967087;28;20035;-69
2023/07/19 12:02:46;;;;;;;12.75;4.68;;;7.10;89.40;;;;;;4936569;28;20377;-69
2023/07/19 12:05:18;;;;;;;16.20;5.25;;;7.00;89.60;;;;;;4944359;28;20847;-69
2023/07/19 12:07:46;;;;;;;11.55;4.63;;;7.00;89.90;;;;;;4950718;28;20070;-68
2023/07/19 12:10:15;;;;;;;12.65;3.90;;;6.90;90.20;;;;;;4944447;28;22020;-68
2023/07/19 12:12:46;;;;;;;14.50;4.07;;;6.90;89.90;;;;;;4944439;28;20481;-67
2023/07/19 12:15:14;;;;;;;7.30;2.97;;;6.90;89.70;;;;;;4943610;28;20038;-69
2023/07/19 12:17:42;;;;;;;13.63;3.83;;;6.80;90.30;;;;;;4949202;28;20034;-68
2023/07/19 12:20:11;;;;;;;10.15;3.60;;;6.80;90.90;;;;;;4947666;28;20059;-69
2023/07/19 12:22:45;;;;;;;11.65;4.03;;;6.80;90.80;;;;;;4948966;28;20397;-69
2023/07/19 12:25:13;;;;;;;8.82;2.92;;;6.80;90.60;;;;;;4946919;28;20039;-69
2023/07/19 12:27:41;;;;;;;9.70;3.03;;;6.70;90.40;;;;;;4933868;28;20056;-69
2023/07/19 12:30:10;;;;;;;6.82;2.60;;;6.60;90.70;;;;;;4946866;28;20134;-69
2023/07/19 12:32:38;;;;;;;9.57;3.15;;;6.50;90.70;;;;;;4942396;28;20031;-68
2023/07/19 12:35:06;;;;;;;9.05;3.63;;;6.50;90.90;;;;;;4949610;28;20042;-68
2023/07/19 12:37:33;;;;;;;10.57;3.65;;;6.50;91.00;;;;;;4952627;28;20078;-67
2023/07/19 12:40:05;;;;;;;13.70;3.22;;;6.50;90.90;;;;;;4949403;28;20054;-68
2023/07/19 12:42:32;;;;;;;15.27;4.68;;;6.50;91.00;;;;;;4941844;28;20110;-68
2023/07/19 12:45:00;;;;;;;11.57;3.00;;;6.40;90.90;;;;;;4928355;28;20027;-68
2023/07/19 12:47:27;;;;;;;;;;;6.30;90.90;;;;;;4951441;28;20037;-68
2023/07/19 12:49:56;;;;;;;9.00;3.22;;;6.30;91.20;;;;;;4936667;28;20344;-68
2023/07/19 12:52:23;;;;;;;12.98;3.13;;;6.30;91.20;;;;;;4948601;28;20038;-68
2023/07/19 12:54:58;;;;;;;7.70;2.63;;;6.30;91.30;;;;;;4946529;28;20038;-67